sensor_id;sensor_type;location;lat;lon;timestamp;P1;durP1;ratioP1;P2;durP2;ratioP2
76550;SDS011;65393;53.160;18.170;2022-12-18T00:01:20;32.70;;;11.70;;
76550;SDS011;65393;53.160;18.170;2022-12-18T00:03:50;33.90;;;11.70;;
76550;SDS011;65393;53.160;18.170;2022-12-18T00:06:18;36.20;;;12.90;;
76550;SDS011;65393;53.160;18.170;2022-12-18T00:08:46;37.80;;;13.00;;
76550;SDS011;65393;53.160;18.170;2022-12-18T00:11:14;39.00;;;13.00;;
76550;SDS011;65393;53.160;18.170;2022-12-18T00:13:43;41.80;;;12.60;;
76550;SDS011;65393;53.160;18.170;2022-12-18T00:16:12;38.30;;;12.90;;
76550;SDS011;65393;53.160;18.170;2022-12-18T00:18:41;42.00;;;13.40;;
76550;SDS011;65393;53.160;18.170;2022-12-18T00:21:09;30.00;;;9.30;;
76550;SDS011;65393;53.160;18.170;2022-12-18T00:23:38;33.90;;;11.50;;
76550;SDS011;65393;53.160;18.170;2022-12-18T00:26:07;44.30;;;12.70;;
76550;SDS011;65393;53.160;18.170;2022-12-18T00:28:37;33.80;;;13.40;;
76550;SDS011;65393;53.160;18.170;2022-12-18T00:31:08;42.20;;;13.80;;
76550;SDS011;65393;53.160;18.170;2022-12-18T00:33:37;38.90;;;13.50;;
76550;SDS011;65393;53.160;18.170;2022-12-18T00:36:06;31.60;;;10.90;;
76550;SDS011;65393;53.160;18.170;2022-12-18T00:38:35;36.00;;;11.60;;
76550;SDS011;65393;53.160;18.170;2022-12-18T00:41:02;38.90;;;12.90;;
76550;SDS011;65393;53.160;18.170;2022-12-18T00:43:30;38.60;;;12.30;;
76550;SDS011;65393;53.160;18.170;2022-12-18T00:46:00;43.90;;;14.20;;
76550;SDS011;65393;53.160;18.170;2022-12-18T00:48:27;30.60;;;12.40;;
76550;SDS011;65393;53.160;18.170;2022-12-18T00:50:53;38.10;;;13.80;;
76550;SDS011;65393;53.160;18.170;2022-12-18T00:53:20;37.90;;;12.20;;
76550;SDS011;65393;53.160;18.170;2022-12-18T00:55:47;38.40;;;12.10;;
76550;SDS011;65393;53.160;18.170;2022-12-18T00:58:15;32.00;;;11.50;;
76550;SDS011;65393;53.160;18.170;2022-12-18T01:00:42;46.40;;;15.90;;
76550;SDS011;65393;53.160;18.170;2022-12-18T01:03:12;48.10;;;15.80;;
76550;SDS011;65393;53.160;18.170;2022-12-18T01:05:41;59.00;;;16.30;;
76550;SDS011;65393;53.160;18.170;2022-12-18T01:08:08;42.40;;;13.30;;
76550;SDS011;65393;53.160;18.170;2022-12-18T01:10:35;38.60;;;12.60;;
76550;SDS011;65393;53.160;18.170;2022-12-18T01:13:01;35.40;;;11.60;;
76550;SDS011;65393;53.160;18.170;2022-12-18T01:15:28;56.50;;;15.30;;
76550;SDS011;65393;53.160;18.170;2022-12-18T01:17:55;47.90;;;14.30;;
76550;SDS011;65393;53.160;18.170;2022-12-18T01:20:21;37.40;;;11.90;;
76550;SDS011;65393;53.160;18.170;2022-12-18T01:22:48;63.70;;;18.40;;
76550;SDS011;65393;53.160;18.170;2022-12-18T01:25:15;60.00;;;17.50;;
76550;SDS011;65393;53.160;18.170;2022-12-18T01:27:43;53.40;;;16.10;;
76550;SDS011;65393;53.160;18.170;2022-12-18T01:30:10;60.10;;;17.90;;
76550;SDS011;65393;53.160;18.170;2022-12-18T01:32:37;57.20;;;18.00;;
76550;SDS011;65393;53.160;18.170;2022-12-18T01:35:04;37.20;;;11.70;;
76550;SDS011;65393;53.160;18.170;2022-12-18T01:37:31;57.20;;;17.30;;
76550;SDS011;65393;53.160;18.170;2022-12-18T01:39:58;54.60;;;17.80;;
76550;SDS011;65393;53.160;18.170;2022-12-18T01:42:25;59.00;;;19.70;;
76550;SDS011;65393;53.160;18.170;2022-12-18T01:50:08;50.40;;;15.80;;
76550;SDS011;65393;53.160;18.170;2022-12-18T01:52:41;52.80;;;15.40;;
76550;SDS011;65393;53.160;18.170;2022-12-18T01:55:10;45.10;;;12.60;;
76550;SDS011;65393;53.160;18.170;2022-12-18T01:57:38;47.20;;;14.90;;
76550;SDS011;65393;53.160;18.170;2022-12-18T02:00:11;39.10;;;12.60;;
76550;SDS011;65393;53.160;18.170;2022-12-18T02:02:43;48.60;;;14.40;;
76550;SDS011;65393;53.160;18.170;2022-12-18T02:05:14;59.60;;;18.20;;
76550;SDS011;65393;53.160;18.170;2022-12-18T02:10:24;49.80;;;16.10;;
76550;SDS011;65393;53.160;18.170;2022-12-18T02:15:50;47.00;;;13.30;;
76550;SDS011;65393;53.160;18.170;2022-12-18T02:18:21;41.50;;;12.40;;
76550;SDS011;65393;53.160;18.170;2022-12-18T02:26:56;49.20;;;15.90;;
76550;SDS011;65393;53.160;18.170;2022-12-18T02:29:32;37.30;;;12.10;;
76550;SDS011;65393;53.160;18.170;2022-12-18T02:32:06;47.10;;;15.80;;
76550;SDS011;65393;53.160;18.170;2022-12-18T02:34:40;37.90;;;12.70;;
76550;SDS011;65393;53.160;18.170;2022-12-18T02:37:14;41.70;;;12.70;;
76550;SDS011;65393;53.160;18.170;2022-12-18T02:39:44;53.40;;;17.00;;
76550;SDS011;65393;53.160;18.170;2022-12-18T02:42:16;58.40;;;17.40;;
76550;SDS011;65393;53.160;18.170;2022-12-18T02:44:47;49.20;;;15.90;;
76550;SDS011;65393;53.160;18.170;2022-12-18T02:47:21;56.60;;;16.60;;
76550;SDS011;65393;53.160;18.170;2022-12-18T02:52:42;37.40;;;12.00;;
76550;SDS011;65393;53.160;18.170;2022-12-18T02:58:02;52.30;;;15.30;;
76550;SDS011;65393;53.160;18.170;2022-12-18T03:01:02;51.50;;;14.50;;
76550;SDS011;65393;53.160;18.170;2022-12-18T03:03:55;46.00;;;15.10;;
76550;SDS011;65393;53.160;18.170;2022-12-18T03:06:27;38.40;;;13.10;;
76550;SDS011;65393;53.160;18.170;2022-12-18T03:08:59;40.60;;;13.30;;
76550;SDS011;65393;53.160;18.170;2022-12-18T03:11:30;29.00;;;9.70;;
76550;SDS011;65393;53.160;18.170;2022-12-18T03:14:20;35.10;;;11.70;;
76550;SDS011;65393;53.160;18.170;2022-12-18T03:16:50;45.90;;;13.80;;
76550;SDS011;65393;53.160;18.170;2022-12-18T03:19:21;36.00;;;12.00;;
76550;SDS011;65393;53.160;18.170;2022-12-18T03:21:53;39.80;;;12.90;;
76550;SDS011;65393;53.160;18.170;2022-12-18T03:24:24;40.40;;;13.00;;
76550;SDS011;65393;53.160;18.170;2022-12-18T03:26:54;37.20;;;12.90;;
76550;SDS011;65393;53.160;18.170;2022-12-18T03:29:32;33.10;;;11.50;;
76550;SDS011;65393;53.160;18.170;2022-12-18T03:32:07;29.80;;;10.10;;
76550;SDS011;65393;53.160;18.170;2022-12-18T03:34:38;36.50;;;11.80;;
76550;SDS011;65393;53.160;18.170;2022-12-18T03:37:09;28.20;;;9.40;;
76550;SDS011;65393;53.160;18.170;2022-12-18T03:39:36;28.80;;;8.80;;
76550;SDS011;65393;53.160;18.170;2022-12-18T03:42:13;29.30;;;11.30;;
76550;SDS011;65393;53.160;18.170;2022-12-18T03:44:57;31.20;;;10.90;;
76550;SDS011;65393;53.160;18.170;2022-12-18T03:47:39;25.00;;;7.60;;
76550;SDS011;65393;53.160;18.170;2022-12-18T03:56:01;35.80;;;11.70;;
76550;SDS011;65393;53.160;18.170;2022-12-18T03:58:34;33.70;;;10.80;;
76550;SDS011;65393;53.160;18.170;2022-12-18T04:01:17;34.80;;;12.80;;
76550;SDS011;65393;53.160;18.170;2022-12-18T04:03:49;32.20;;;11.40;;
76550;SDS011;65393;53.160;18.170;2022-12-18T04:06:18;37.30;;;11.80;;
76550;SDS011;65393;53.160;18.170;2022-12-18T04:08:46;36.20;;;11.60;;
76550;SDS011;65393;53.160;18.170;2022-12-18T04:11:16;36.00;;;12.10;;
76550;SDS011;65393;53.160;18.170;2022-12-18T04:13:44;24.40;;;8.60;;
76550;SDS011;65393;53.160;18.170;2022-12-18T04:16:19;21.60;;;7.10;;
76550;SDS011;65393;53.160;18.170;2022-12-18T04:18:46;30.40;;;9.90;;
76550;SDS011;65393;53.160;18.170;2022-12-18T04:21:14;31.10;;;10.50;;
76550;SDS011;65393;53.160;18.170;2022-12-18T04:23:42;27.50;;;10.60;;
76550;SDS011;65393;53.160;18.170;2022-12-18T04:26:08;36.00;;;12.40;;
76550;SDS011;65393;53.160;18.170;2022-12-18T04:28:55;36.80;;;12.90;;
76550;SDS011;65393;53.160;18.170;2022-12-18T04:31:22;34.30;;;12.10;;
76550;SDS011;65393;53.160;18.170;2022-12-18T04:33:50;32.60;;;11.50;;
76550;SDS011;65393;53.160;18.170;2022-12-18T04:36:17;34.90;;;12.80;;
76550;SDS011;65393;53.160;18.170;2022-12-18T04:38:44;28.10;;;9.80;;
76550;SDS011;65393;53.160;18.170;2022-12-18T04:41:14;30.90;;;9.40;;
76550;SDS011;65393;53.160;18.170;2022-12-18T04:43:41;31.90;;;10.80;;
76550;SDS011;65393;53.160;18.170;2022-12-18T04:46:08;29.60;;;11.10;;
76550;SDS011;65393;53.160;18.170;2022-12-18T04:48:35;30.80;;;11.60;;
76550;SDS011;65393;53.160;18.170;2022-12-18T04:51:03;36.40;;;11.30;;
76550;SDS011;65393;53.160;18.170;2022-12-18T04:53:31;24.80;;;9.20;;
76550;SDS011;65393;53.160;18.170;2022-12-18T04:56:05;26.10;;;9.40;;
76550;SDS011;65393;53.160;18.170;2022-12-18T04:58:35;28.60;;;10.50;;
76550;SDS011;65393;53.160;18.170;2022-12-18T05:01:04;28.50;;;10.40;;
76550;SDS011;65393;53.160;18.170;2022-12-18T05:03:31;26.30;;;9.00;;
76550;SDS011;65393;53.160;18.170;2022-12-18T05:05:58;26.00;;;9.10;;
76550;SDS011;65393;53.160;18.170;2022-12-18T05:08:24;26.50;;;8.50;;
76550;SDS011;65393;53.160;18.170;2022-12-18T05:11:04;36.30;;;10.30;;
76550;SDS011;65393;53.160;18.170;2022-12-18T05:13:36;27.10;;;9.80;;
76550;SDS011;65393;53.160;18.170;2022-12-18T05:16:04;25.40;;;8.80;;
76550;SDS011;65393;53.160;18.170;2022-12-18T05:18:31;17.10;;;6.00;;
76550;SDS011;65393;53.160;18.170;2022-12-18T05:20:58;27.40;;;9.00;;
76550;SDS011;65393;53.160;18.170;2022-12-18T05:23:24;23.30;;;8.50;;
76550;SDS011;65393;53.160;18.170;2022-12-18T05:25:52;28.70;;;9.10;;
76550;SDS011;65393;53.160;18.170;2022-12-18T05:28:27;25.60;;;9.40;;
76550;SDS011;65393;53.160;18.170;2022-12-18T05:30:56;30.70;;;10.30;;
76550;SDS011;65393;53.160;18.170;2022-12-18T05:33:25;25.00;;;9.60;;
76550;SDS011;65393;53.160;18.170;2022-12-18T05:35:54;27.50;;;10.00;;
76550;SDS011;65393;53.160;18.170;2022-12-18T05:38:23;23.00;;;8.40;;
76550;SDS011;65393;53.160;18.170;2022-12-18T05:40:51;20.90;;;8.10;;
76550;SDS011;65393;53.160;18.170;2022-12-18T05:43:19;31.20;;;11.20;;
76550;SDS011;65393;53.160;18.170;2022-12-18T05:45:48;28.20;;;9.60;;
76550;SDS011;65393;53.160;18.170;2022-12-18T05:48:16;36.00;;;11.20;;
76550;SDS011;65393;53.160;18.170;2022-12-18T05:50:44;32.90;;;11.70;;
76550;SDS011;65393;53.160;18.170;2022-12-18T05:53:15;26.80;;;10.70;;
76550;SDS011;65393;53.160;18.170;2022-12-18T05:55:44;29.00;;;11.30;;
76550;SDS011;65393;53.160;18.170;2022-12-18T05:58:12;37.40;;;10.80;;
76550;SDS011;65393;53.160;18.170;2022-12-18T06:00:40;29.30;;;11.00;;
76550;SDS011;65393;53.160;18.170;2022-12-18T06:03:08;19.50;;;6.60;;
76550;SDS011;65393;53.160;18.170;2022-12-18T06:05:37;32.00;;;11.00;;
76550;SDS011;65393;53.160;18.170;2022-12-18T06:08:06;38.10;;;11.30;;
76550;SDS011;65393;53.160;18.170;2022-12-18T06:10:33;35.40;;;11.90;;
76550;SDS011;65393;53.160;18.170;2022-12-18T06:13:00;33.40;;;11.90;;
76550;SDS011;65393;53.160;18.170;2022-12-18T06:15:27;30.50;;;11.60;;
76550;SDS011;65393;53.160;18.170;2022-12-18T06:17:54;35.20;;;12.40;;
76550;SDS011;65393;53.160;18.170;2022-12-18T06:20:20;33.80;;;11.90;;
76550;SDS011;65393;53.160;18.170;2022-12-18T06:22:47;31.00;;;10.80;;
76550;SDS011;65393;53.160;18.170;2022-12-18T06:25:14;27.00;;;9.90;;
76550;SDS011;65393;53.160;18.170;2022-12-18T06:27:41;28.00;;;10.00;;
76550;SDS011;65393;53.160;18.170;2022-12-18T06:30:08;38.50;;;12.90;;
76550;SDS011;65393;53.160;18.170;2022-12-18T06:32:35;40.80;;;14.30;;
76550;SDS011;65393;53.160;18.170;2022-12-18T06:35:02;40.20;;;13.70;;
76550;SDS011;65393;53.160;18.170;2022-12-18T06:37:30;45.20;;;14.30;;
76550;SDS011;65393;53.160;18.170;2022-12-18T06:39:57;43.60;;;12.90;;
76550;SDS011;65393;53.160;18.170;2022-12-18T06:42:24;37.50;;;12.10;;
76550;SDS011;65393;53.160;18.170;2022-12-18T06:44:51;30.70;;;11.10;;
76550;SDS011;65393;53.160;18.170;2022-12-18T06:47:18;36.40;;;12.50;;
76550;SDS011;65393;53.160;18.170;2022-12-18T06:49:45;35.90;;;11.10;;
76550;SDS011;65393;53.160;18.170;2022-12-18T06:52:11;46.30;;;14.40;;
76550;SDS011;65393;53.160;18.170;2022-12-18T06:54:38;40.90;;;13.10;;
76550;SDS011;65393;53.160;18.170;2022-12-18T06:57:05;38.90;;;13.80;;
76550;SDS011;65393;53.160;18.170;2022-12-18T06:59:32;34.00;;;11.70;;
76550;SDS011;65393;53.160;18.170;2022-12-18T07:01:58;39.80;;;12.30;;
76550;SDS011;65393;53.160;18.170;2022-12-18T07:04:28;30.40;;;11.10;;
76550;SDS011;65393;53.160;18.170;2022-12-18T07:06:56;34.30;;;12.10;;
76550;SDS011;65393;53.160;18.170;2022-12-18T07:09:24;40.50;;;11.00;;
76550;SDS011;65393;53.160;18.170;2022-12-18T07:11:51;41.30;;;12.90;;
76550;SDS011;65393;53.160;18.170;2022-12-18T07:14:17;48.20;;;14.50;;
76550;SDS011;65393;53.160;18.170;2022-12-18T07:16:44;39.70;;;13.80;;
76550;SDS011;65393;53.160;18.170;2022-12-18T07:19:11;43.70;;;13.20;;
76550;SDS011;65393;53.160;18.170;2022-12-18T07:21:37;33.90;;;10.70;;
76550;SDS011;65393;53.160;18.170;2022-12-18T07:24:04;37.00;;;10.60;;
76550;SDS011;65393;53.160;18.170;2022-12-18T07:26:32;38.60;;;13.20;;
76550;SDS011;65393;53.160;18.170;2022-12-18T07:28:59;27.90;;;9.00;;
76550;SDS011;65393;53.160;18.170;2022-12-18T07:31:26;41.10;;;12.00;;
76550;SDS011;65393;53.160;18.170;2022-12-18T07:33:53;45.90;;;12.30;;
76550;SDS011;65393;53.160;18.170;2022-12-18T07:36:20;42.70;;;13.30;;
76550;SDS011;65393;53.160;18.170;2022-12-18T07:38:50;38.70;;;13.80;;
76550;SDS011;65393;53.160;18.170;2022-12-18T07:41:18;43.70;;;12.80;;
76550;SDS011;65393;53.160;18.170;2022-12-18T07:43:45;46.00;;;15.10;;
76550;SDS011;65393;53.160;18.170;2022-12-18T07:46:12;38.00;;;12.00;;
76550;SDS011;65393;53.160;18.170;2022-12-18T07:48:41;44.90;;;13.20;;
76550;SDS011;65393;53.160;18.170;2022-12-18T07:51:09;36.40;;;12.70;;
76550;SDS011;65393;53.160;18.170;2022-12-18T07:53:39;45.30;;;15.90;;
76550;SDS011;65393;53.160;18.170;2022-12-18T07:56:08;40.50;;;14.20;;
76550;SDS011;65393;53.160;18.170;2022-12-18T07:58:37;36.80;;;11.40;;
76550;SDS011;65393;53.160;18.170;2022-12-18T08:01:05;29.50;;;9.20;;
76550;SDS011;65393;53.160;18.170;2022-12-18T08:03:33;39.90;;;13.00;;
76550;SDS011;65393;53.160;18.170;2022-12-18T08:06:00;38.20;;;11.50;;
76550;SDS011;65393;53.160;18.170;2022-12-18T08:08:28;33.60;;;11.80;;
76550;SDS011;65393;53.160;18.170;2022-12-18T08:10:55;40.10;;;13.20;;
76550;SDS011;65393;53.160;18.170;2022-12-18T08:13:24;22.00;;;7.10;;
76550;SDS011;65393;53.160;18.170;2022-12-18T08:15:56;35.00;;;11.10;;
76550;SDS011;65393;53.160;18.170;2022-12-18T08:18:27;31.60;;;9.50;;
76550;SDS011;65393;53.160;18.170;2022-12-18T08:20:54;36.00;;;12.20;;
76550;SDS011;65393;53.160;18.170;2022-12-18T08:23:21;40.20;;;11.40;;
76550;SDS011;65393;53.160;18.170;2022-12-18T08:25:48;34.60;;;11.70;;
76550;SDS011;65393;53.160;18.170;2022-12-18T08:28:16;28.80;;;10.40;;
76550;SDS011;65393;53.160;18.170;2022-12-18T08:30:43;34.10;;;11.40;;
76550;SDS011;65393;53.160;18.170;2022-12-18T08:33:11;37.30;;;11.50;;
76550;SDS011;65393;53.160;18.170;2022-12-18T08:35:39;26.20;;;9.70;;
76550;SDS011;65393;53.160;18.170;2022-12-18T08:38:05;34.50;;;12.60;;
76550;SDS011;65393;53.160;18.170;2022-12-18T08:40:32;37.10;;;11.30;;
76550;SDS011;65393;53.160;18.170;2022-12-18T08:42:59;38.10;;;12.80;;
76550;SDS011;65393;53.160;18.170;2022-12-18T08:45:44;31.00;;;11.10;;
76550;SDS011;65393;53.160;18.170;2022-12-18T08:48:11;40.70;;;14.80;;
76550;SDS011;65393;53.160;18.170;2022-12-18T08:50:41;24.50;;;8.50;;
76550;SDS011;65393;53.160;18.170;2022-12-18T08:53:15;41.20;;;13.20;;
76550;SDS011;65393;53.160;18.170;2022-12-18T08:55:43;20.20;;;7.10;;
76550;SDS011;65393;53.160;18.170;2022-12-18T08:58:10;35.90;;;12.30;;
76550;SDS011;65393;53.160;18.170;2022-12-18T09:00:40;43.60;;;13.60;;
76550;SDS011;65393;53.160;18.170;2022-12-18T09:03:13;33.90;;;11.10;;
76550;SDS011;65393;53.160;18.170;2022-12-18T09:05:41;32.50;;;11.60;;
76550;SDS011;65393;53.160;18.170;2022-12-18T09:08:15;41.50;;;13.60;;
76550;SDS011;65393;53.160;18.170;2022-12-18T09:10:47;52.60;;;18.30;;
76550;SDS011;65393;53.160;18.170;2022-12-18T09:13:15;34.10;;;12.20;;
76550;SDS011;65393;53.160;18.170;2022-12-18T09:15:53;28.30;;;8.80;;
76550;SDS011;65393;53.160;18.170;2022-12-18T09:18:22;31.20;;;11.00;;
76550;SDS011;65393;53.160;18.170;2022-12-18T09:20:50;36.20;;;11.90;;
76550;SDS011;65393;53.160;18.170;2022-12-18T09:23:19;32.20;;;10.80;;
76550;SDS011;65393;53.160;18.170;2022-12-18T09:25:46;41.40;;;15.10;;
76550;SDS011;65393;53.160;18.170;2022-12-18T09:28:14;35.10;;;12.10;;
76550;SDS011;65393;53.160;18.170;2022-12-18T09:30:43;43.30;;;13.50;;
76550;SDS011;65393;53.160;18.170;2022-12-18T09:33:11;33.40;;;12.10;;
76550;SDS011;65393;53.160;18.170;2022-12-18T09:35:39;34.20;;;11.00;;
76550;SDS011;65393;53.160;18.170;2022-12-18T09:38:07;44.90;;;14.10;;
76550;SDS011;65393;53.160;18.170;2022-12-18T09:40:44;41.40;;;13.90;;
76550;SDS011;65393;53.160;18.170;2022-12-18T09:43:16;34.90;;;11.50;;
76550;SDS011;65393;53.160;18.170;2022-12-18T09:45:47;39.30;;;13.60;;
76550;SDS011;65393;53.160;18.170;2022-12-18T09:48:27;35.10;;;11.10;;
76550;SDS011;65393;53.160;18.170;2022-12-18T09:50:58;41.60;;;14.00;;
76550;SDS011;65393;53.160;18.170;2022-12-18T09:53:31;45.70;;;16.00;;
76550;SDS011;65393;53.160;18.170;2022-12-18T09:56:01;42.50;;;16.50;;
76550;SDS011;65393;53.160;18.170;2022-12-18T09:58:32;44.60;;;15.30;;
76550;SDS011;65393;53.160;18.170;2022-12-18T10:01:18;38.20;;;14.40;;
76550;SDS011;65393;53.160;18.170;2022-12-18T10:03:49;33.20;;;12.50;;
76550;SDS011;65393;53.160;18.170;2022-12-18T10:06:24;31.70;;;11.70;;
76550;SDS011;65393;53.160;18.170;2022-12-18T10:09:04;32.60;;;8.20;;
76550;SDS011;65393;53.160;18.170;2022-12-18T10:22:38;45.40;;;15.80;;
76550;SDS011;65393;53.160;18.170;2022-12-18T10:25:26;35.00;;;13.40;;
76550;SDS011;65393;53.160;18.170;2022-12-18T10:27:58;32.60;;;12.70;;
76550;SDS011;65393;53.160;18.170;2022-12-18T10:30:36;25.90;;;9.80;;
76550;SDS011;65393;53.160;18.170;2022-12-18T10:33:05;34.10;;;12.00;;
76550;SDS011;65393;53.160;18.170;2022-12-18T10:35:35;26.00;;;10.30;;
76550;SDS011;65393;53.160;18.170;2022-12-18T10:38:07;29.20;;;10.10;;
76550;SDS011;65393;53.160;18.170;2022-12-18T10:43:34;18.10;;;6.60;;
76550;SDS011;65393;53.160;18.170;2022-12-18T10:48:38;33.00;;;10.20;;
76550;SDS011;65393;53.160;18.170;2022-12-18T10:51:20;33.20;;;11.00;;
76550;SDS011;65393;53.160;18.170;2022-12-18T10:53:54;31.20;;;11.40;;
76550;SDS011;65393;53.160;18.170;2022-12-18T10:56:27;34.50;;;12.50;;
76550;SDS011;65393;53.160;18.170;2022-12-18T10:59:05;30.20;;;10.40;;
76550;SDS011;65393;53.160;18.170;2022-12-18T11:04:27;27.50;;;10.20;;
76550;SDS011;65393;53.160;18.170;2022-12-18T11:07:05;34.30;;;11.20;;
76550;SDS011;65393;53.160;18.170;2022-12-18T11:09:34;36.40;;;12.40;;
76550;SDS011;65393;53.160;18.170;2022-12-18T11:12:14;33.70;;;12.40;;
76550;SDS011;65393;53.160;18.170;2022-12-18T11:14:51;54.90;;;19.50;;
76550;SDS011;65393;53.160;18.170;2022-12-18T11:17:34;48.20;;;16.00;;
76550;SDS011;65393;53.160;18.170;2022-12-18T11:20:05;33.60;;;10.90;;
76550;SDS011;65393;53.160;18.170;2022-12-18T11:22:54;43.10;;;14.00;;
76550;SDS011;65393;53.160;18.170;2022-12-18T11:25:23;43.30;;;14.90;;
76550;SDS011;65393;53.160;18.170;2022-12-18T11:27:51;39.80;;;13.40;;
76550;SDS011;65393;53.160;18.170;2022-12-18T11:32:49;29.70;;;10.80;;
76550;SDS011;65393;53.160;18.170;2022-12-18T11:35:28;52.60;;;15.50;;
76550;SDS011;65393;53.160;18.170;2022-12-18T11:38:05;54.70;;;16.60;;
76550;SDS011;65393;53.160;18.170;2022-12-18T11:40:47;55.20;;;18.50;;
76550;SDS011;65393;53.160;18.170;2022-12-18T11:43:37;53.90;;;17.60;;
76550;SDS011;65393;53.160;18.170;2022-12-18T11:46:31;62.80;;;16.70;;
76550;SDS011;65393;53.160;18.170;2022-12-18T11:49:07;64.30;;;17.90;;
76550;SDS011;65393;53.160;18.170;2022-12-18T11:51:51;52.20;;;17.30;;
76550;SDS011;65393;53.160;18.170;2022-12-18T11:54:26;50.10;;;15.90;;
76550;SDS011;65393;53.160;18.170;2022-12-18T11:57:00;71.10;;;21.20;;
76550;SDS011;65393;53.160;18.170;2022-12-18T12:11:02;57.90;;;16.50;;
76550;SDS011;65393;53.160;18.170;2022-12-18T12:13:35;78.00;;;20.80;;
76550;SDS011;65393;53.160;18.170;2022-12-18T12:28:13;38.20;;;11.70;;
76550;SDS011;65393;53.160;18.170;2022-12-18T12:33:41;53.80;;;17.40;;
76550;SDS011;65393;53.160;18.170;2022-12-18T12:39:20;39.90;;;12.20;;
76550;SDS011;65393;53.160;18.170;2022-12-18T12:41:54;48.90;;;14.80;;
76550;SDS011;65393;53.160;18.170;2022-12-18T12:44:48;52.40;;;17.00;;
76550;SDS011;65393;53.160;18.170;2022-12-18T12:47:27;59.30;;;16.50;;
76550;SDS011;65393;53.160;18.170;2022-12-18T12:55:27;54.10;;;15.10;;
76550;SDS011;65393;53.160;18.170;2022-12-18T13:00:53;63.50;;;17.90;;
76550;SDS011;65393;53.160;18.170;2022-12-18T13:03:31;49.50;;;14.60;;
76550;SDS011;65393;53.160;18.170;2022-12-18T13:06:12;60.70;;;16.90;;
76550;SDS011;65393;53.160;18.170;2022-12-18T13:08:55;64.90;;;19.50;;
76550;SDS011;65393;53.160;18.170;2022-12-18T13:11:39;52.00;;;15.90;;
76550;SDS011;65393;53.160;18.170;2022-12-18T13:19:49;76.50;;;21.50;;
76550;SDS011;65393;53.160;18.170;2022-12-18T13:22:24;71.70;;;20.80;;
76550;SDS011;65393;53.160;18.170;2022-12-18T13:24:56;68.30;;;20.80;;
76550;SDS011;65393;53.160;18.170;2022-12-18T13:43:54;33.10;;;10.60;;
76550;SDS011;65393;53.160;18.170;2022-12-18T13:46:29;48.70;;;14.40;;
76550;SDS011;65393;53.160;18.170;2022-12-18T13:49:16;40.70;;;12.80;;
76550;SDS011;65393;53.160;18.170;2022-12-18T13:51:49;48.20;;;14.70;;
76550;SDS011;65393;53.160;18.170;2022-12-18T13:54:19;39.10;;;10.90;;
76550;SDS011;65393;53.160;18.170;2022-12-18T13:56:55;57.90;;;16.90;;
76550;SDS011;65393;53.160;18.170;2022-12-18T13:59:25;48.50;;;14.40;;
76550;SDS011;65393;53.160;18.170;2022-12-18T14:02:11;49.00;;;15.00;;
76550;SDS011;65393;53.160;18.170;2022-12-18T14:04:40;37.30;;;12.20;;
76550;SDS011;65393;53.160;18.170;2022-12-18T14:07:10;69.30;;;20.80;;
76550;SDS011;65393;53.160;18.170;2022-12-18T14:12:17;62.00;;;16.40;;
76550;SDS011;65393;53.160;18.170;2022-12-18T14:18:03;60.20;;;17.10;;
76550;SDS011;65393;53.160;18.170;2022-12-18T14:20:39;52.60;;;15.90;;
76550;SDS011;65393;53.160;18.170;2022-12-18T14:25:59;53.50;;;15.30;;
76550;SDS011;65393;53.160;18.170;2022-12-18T14:28:26;56.20;;;15.60;;
76550;SDS011;65393;53.160;18.170;2022-12-18T14:30:54;49.00;;;15.00;;
76550;SDS011;65393;53.160;18.170;2022-12-18T14:33:25;61.30;;;17.40;;
76550;SDS011;65393;53.160;18.170;2022-12-18T14:36:00;52.40;;;17.00;;
76550;SDS011;65393;53.160;18.170;2022-12-18T14:38:36;56.80;;;18.20;;
76550;SDS011;65393;53.160;18.170;2022-12-18T14:43:34;42.00;;;13.00;;
76550;SDS011;65393;53.160;18.170;2022-12-18T14:46:03;57.30;;;17.50;;
76550;SDS011;65393;53.160;18.170;2022-12-18T14:48:33;53.00;;;15.00;;
76550;SDS011;65393;53.160;18.170;2022-12-18T14:53:37;67.00;;;18.90;;
76550;SDS011;65393;53.160;18.170;2022-12-18T14:56:30;74.70;;;22.60;;
76550;SDS011;65393;53.160;18.170;2022-12-18T15:01:36;94.10;;;26.00;;
76550;SDS011;65393;53.160;18.170;2022-12-18T15:07:13;80.70;;;20.60;;
76550;SDS011;65393;53.160;18.170;2022-12-18T15:09:43;55.40;;;14.80;;
76550;SDS011;65393;53.160;18.170;2022-12-18T15:12:36;85.00;;;25.50;;
76550;SDS011;65393;53.160;18.170;2022-12-18T15:15:04;101.70;;;27.10;;
76550;SDS011;65393;53.160;18.170;2022-12-18T15:17:32;75.10;;;21.00;;
76550;SDS011;65393;53.160;18.170;2022-12-18T15:20:00;64.70;;;20.50;;
76550;SDS011;65393;53.160;18.170;2022-12-18T15:22:30;64.70;;;20.10;;
76550;SDS011;65393;53.160;18.170;2022-12-18T15:25:01;67.80;;;19.10;;
76550;SDS011;65393;53.160;18.170;2022-12-18T15:27:33;64.40;;;17.40;;
76550;SDS011;65393;53.160;18.170;2022-12-18T15:32:36;61.40;;;16.80;;
76550;SDS011;65393;53.160;18.170;2022-12-18T15:37:39;79.60;;;22.10;;
76550;SDS011;65393;53.160;18.170;2022-12-18T15:40:07;72.90;;;21.00;;
76550;SDS011;65393;53.160;18.170;2022-12-18T15:42:38;70.40;;;20.50;;
76550;SDS011;65393;53.160;18.170;2022-12-18T15:45:23;108.50;;;26.90;;
76550;SDS011;65393;53.160;18.170;2022-12-18T15:47:50;166.60;;;36.30;;
76550;SDS011;65393;53.160;18.170;2022-12-18T15:50:18;98.00;;;26.60;;
76550;SDS011;65393;53.160;18.170;2022-12-18T15:52:45;81.40;;;19.40;;
76550;SDS011;65393;53.160;18.170;2022-12-18T15:55:20;82.90;;;23.40;;
76550;SDS011;65393;53.160;18.170;2022-12-18T15:58:08;75.90;;;23.00;;
76550;SDS011;65393;53.160;18.170;2022-12-18T16:00:38;54.70;;;17.90;;
76550;SDS011;65393;53.160;18.170;2022-12-18T16:03:06;84.40;;;19.90;;
76550;SDS011;65393;53.160;18.170;2022-12-18T16:05:36;73.60;;;18.90;;
76550;SDS011;65393;53.160;18.170;2022-12-18T16:08:03;49.30;;;14.20;;
76550;SDS011;65393;53.160;18.170;2022-12-18T16:10:31;51.50;;;13.30;;
76550;SDS011;65393;53.160;18.170;2022-12-18T16:13:00;73.80;;;19.60;;
76550;SDS011;65393;53.160;18.170;2022-12-18T16:15:27;44.60;;;13.50;;
76550;SDS011;65393;53.160;18.170;2022-12-18T16:17:54;60.20;;;17.50;;
76550;SDS011;65393;53.160;18.170;2022-12-18T16:20:24;71.20;;;19.70;;
76550;SDS011;65393;53.160;18.170;2022-12-18T16:22:51;85.50;;;24.00;;
76550;SDS011;65393;53.160;18.170;2022-12-18T16:25:22;70.70;;;20.10;;
76550;SDS011;65393;53.160;18.170;2022-12-18T16:27:56;81.10;;;21.50;;
76550;SDS011;65393;53.160;18.170;2022-12-18T16:30:28;69.10;;;20.80;;
76550;SDS011;65393;53.160;18.170;2022-12-18T16:32:57;56.60;;;18.10;;
76550;SDS011;65393;53.160;18.170;2022-12-18T16:35:25;67.60;;;21.00;;
76550;SDS011;65393;53.160;18.170;2022-12-18T16:37:52;78.60;;;24.50;;
76550;SDS011;65393;53.160;18.170;2022-12-18T16:40:20;64.10;;;18.50;;
76550;SDS011;65393;53.160;18.170;2022-12-18T16:42:48;67.60;;;18.80;;
76550;SDS011;65393;53.160;18.170;2022-12-18T16:45:18;76.00;;;20.70;;
76550;SDS011;65393;53.160;18.170;2022-12-18T16:47:48;92.00;;;26.60;;